Time;durP1;ratioP1;P1;durP2;ratioP2;P2;SDS_P1;SDS_P2;PMS_P1;PMS_P2;Temp;Humidity;BMP_temperature;BMP_pressure;BME280_temperature;BME280_humidity;BME280_pressure;Samples;Min_cycle;Max_cycle;Signal;HPM_P1;HPM_P2
2021/10/08 00:00:31;;;;;;;;;;;20.90;64.70;;;;;;5050852;28;1906;-73
2021/10/08 00:02:57;;;;;;;;;;;20.90;64.80;;;;;;5051001;28;1288;-73
2021/10/08 00:05:22;;;;;;;;;;;20.90;64.80;;;;;;5051816;28;900;-73
2021/10/08 00:07:48;;;;;;;;;;;20.80;64.80;;;;;;5050728;28;1315;-71
2021/10/08 00:10:13;;;;;;;;;;;20.80;64.80;;;;;;5050129;28;1095;-72
2021/10/08 00:12:39;;;;;;;;;;;20.80;64.80;;;;;;5052663;28;1196;-73
2021/10/08 00:15:04;;;;;;;;;;;20.80;64.90;;;;;;5056046;28;1400;-74
2021/10/08 00:17:30;;;;;;;;;;;20.80;64.90;;;;;;5054387;28;1440;-73
2021/10/08 00:19:55;;;;;;;;;;;20.80;64.90;;;;;;5055108;28;1894;-71
2021/10/08 00:22:20;;;;;;;;;;;20.80;64.90;;;;;;5054134;28;1067;-73
2021/10/08 00:24:46;;;;;;;;;;;20.80;64.90;;;;;;5055690;28;1366;-72
2021/10/08 00:27:11;;;;;;;;;;;20.80;65.00;;;;;;5050266;28;1350;-72
2021/10/08 00:29:37;;;;;;;;;;;20.80;65.00;;;;;;5034273;28;1140;-73
2021/10/08 00:32:02;;;;;;;;;;;20.80;65.00;;;;;;5050206;28;1290;-73
2021/10/08 00:34:28;;;;;;;;;;;20.80;65.10;;;;;;5035633;28;1130;-73
2021/10/08 00:36:53;;;;;;;;;;;20.80;65.80;;;;;;5035325;28;1354;-73
2021/10/08 00:39:19;;;;;;;;;;;20.80;65.10;;;;;;5050967;28;1955;-73
2021/10/08 00:41:44;;;;;;;;;;;20.80;65.10;;;;;;5034943;28;1299;-70
2021/10/08 00:44:09;;;;;;;;;;;20.80;65.10;;;;;;5035464;28;1385;-73
2021/10/08 00:46:35;;;;;;;;;;;20.80;65.10;;;;;;5030048;28;1358;-73
2021/10/08 00:49:00;;;;;;;;;;;20.80;65.10;;;;;;5032331;28;1107;-73
2021/10/08 00:51:26;;;;;;;;;;;20.80;65.20;;;;;;5050277;28;1287;-73
2021/10/08 00:53:51;;;;;;;;;;;20.70;65.10;;;;;;5035218;28;1271;-73
2021/10/08 00:56:17;;;;;;;;;;;20.80;65.20;;;;;;5034551;28;1367;-73
2021/10/08 00:58:43;;;;;;;;;;;20.80;65.30;;;;;;5034723;28;1341;-72
2021/10/08 01:01:08;;;;;;;;;;;20.80;65.20;;;;;;5049741;28;1965;-73
2021/10/08 01:03:34;;;;;;;;;;;20.70;65.20;;;;;;5034872;28;1308;-73
2021/10/08 01:05:59;;;;;;;;;;;20.80;65.30;;;;;;5034897;28;1215;-73
2021/10/08 01:08:24;;;;;;;;;;;20.70;65.30;;;;;;5033044;28;1171;-74
2021/10/08 01:10:50;;;;;;;;;;;20.70;65.30;;;;;;5034414;28;1266;-73
2021/10/08 01:13:15;;;;;;;;;;;20.70;65.30;;;;;;5050106;28;1431;-73
2021/10/08 01:15:42;;;;;;;;;;;20.70;65.40;;;;;;5049842;28;1249;-73
2021/10/08 01:18:07;;;;;;;;;;;20.70;65.40;;;;;;5034311;28;1248;-73
2021/10/08 01:20:33;;;;;;;;;;;20.70;65.40;;;;;;5049641;28;1951;-73
2021/10/08 01:22:58;;;;;;;;;;;20.70;65.40;;;;;;5034038;28;1107;-73
2021/10/08 01:25:25;;;;;;;;;;;20.70;65.40;;;;;;5034466;28;1059;-72
2021/10/08 01:27:50;;;;;;;;;;;20.70;65.50;;;;;;5044535;28;1322;-73
2021/10/08 01:30:16;;;;;;;;;;;20.70;65.50;;;;;;5034468;28;1115;-74
2021/10/08 01:32:41;;;;;;;;;;;20.70;65.50;;;;;;5049795;28;1151;-73
2021/10/08 01:35:07;;;;;;;;;;;20.70;65.50;;;;;;5049752;28;1270;-73
2021/10/08 01:37:32;;;;;;;;;;;20.70;65.50;;;;;;5033514;28;1335;-71
2021/10/08 01:39:57;;;;;;;;;;;20.70;65.60;;;;;;5033778;28;1913;-73
2021/10/08 01:42:23;;;;;;;;;;;20.70;65.50;;;;;;5016638;28;1287;-73
2021/10/08 01:44:48;;;;;;;;;;;20.70;65.60;;;;;;5034002;28;1425;-71
2021/10/08 01:47:14;;;;;;;;;;;20.70;65.60;;;;;;5043326;28;1381;-73
2021/10/08 01:49:39;;;;;;;;;;;20.70;65.60;;;;;;5034327;28;1162;-73
2021/10/08 01:52:05;;;;;;;;;;;20.70;65.60;;;;;;5033596;28;1264;-72
2021/10/08 01:54:30;;;;;;;;;;;20.70;65.60;;;;;;5049165;28;1286;-73
2021/10/08 01:56:56;;;;;;;;;;;20.70;65.70;;;;;;5032116;28;1229;-73
2021/10/08 01:59:21;;;;;;;;;;;20.70;65.70;;;;;;5049070;28;1913;-73
2021/10/08 02:01:47;;;;;;;;;;;20.70;65.70;;;;;;5033452;28;1048;-73
2021/10/08 02:04:12;;;;;;;;;;;20.70;65.70;;;;;;5049286;28;1088;-73
2021/10/08 02:06:38;;;;;;;;;;;20.70;65.70;;;;;;5048638;28;1287;-73
2021/10/08 02:09:03;;;;;;;;;;;20.70;65.80;;;;;;5033328;28;1087;-73
2021/10/08 02:11:29;;;;;;;;;;;20.70;65.70;;;;;;5033185;28;1425;-73
2021/10/08 02:13:54;;;;;;;;;;;20.70;65.80;;;;;;5033282;28;980;-73
2021/10/08 02:16:22;;;;;;;;;;;20.70;65.80;;;;;;5033882;28;1431;-73
2021/10/08 02:18:52;;;;;;;;;;;20.70;65.80;;;;;;5032971;28;1076;-72
2021/10/08 02:21:18;;;;;;;;;;;20.70;65.80;;;;;;5048374;28;1890;-73
2021/10/08 02:23:43;;;;;;;;;;;20.70;65.80;;;;;;5033559;28;1142;-73
2021/10/08 02:26:09;;;;;;;;;;;20.70;65.90;;;;;;5031948;28;1368;-73
2021/10/08 02:28:34;;;;;;;;;;;20.70;65.90;;;;;;5036890;28;1177;-72
2021/10/08 02:30:59;;;;;;;;;;;20.60;65.80;;;;;;5051691;28;1075;-74
2021/10/08 02:33:25;;;;;;;;;;;20.70;65.90;;;;;;5052798;28;1118;-73
2021/10/08 02:35:50;;;;;;;;;;;20.60;65.80;;;;;;5052045;28;1185;-72
2021/10/08 02:38:16;;;;;;;;;;;20.60;65.80;;;;;;5053276;28;1379;-73
2021/10/08 02:40:42;;;;;;;;;;;20.70;65.90;;;;;;5035332;28;1976;-73
2021/10/08 02:43:07;;;;;;;;;;;20.70;65.90;;;;;;5032920;28;1245;-73
2021/10/08 02:45:32;;;;;;;;;;;20.60;65.90;;;;;;5033051;28;1340;-73
2021/10/08 02:47:58;;;;;;;;;;;20.60;65.90;;;;;;5037704;28;1200;-73
2021/10/08 02:50:26;;;;;;;;;;;20.60;65.90;;;;;;5052013;28;1114;-73
2021/10/08 02:52:51;;;;;;;;;;;20.60;65.90;;;;;;5051856;28;1283;-73
2021/10/08 02:55:17;;;;;;;;;;;20.60;65.90;;;;;;5051247;28;1162;-74
2021/10/08 02:57:42;;;;;;;;;;;20.60;65.90;;;;;;5052379;28;1284;-73
2021/10/08 03:00:08;;;;;;;;;;;20.60;66.00;;;;;;5051949;28;1971;-73
2021/10/08 03:02:34;;;;;;;;;;;20.60;66.00;;;;;;5034368;28;1292;-72
2021/10/08 03:04:59;;;;;;;;;;;20.60;66.00;;;;;;5051464;28;1281;-73
2021/10/08 03:07:24;;;;;;;;;;;20.60;66.00;;;;;;5051294;28;1278;-73
2021/10/08 03:09:50;;;;;;;;;;;20.60;66.00;;;;;;5051824;28;1086;-70
2021/10/08 03:12:15;;;;;;;;;;;20.60;66.00;;;;;;5052084;28;1256;-73
2021/10/08 03:14:41;;;;;;;;;;;20.60;66.80;;;;;;5052612;28;1291;-73
2021/10/08 03:17:06;;;;;;;;;;;20.60;66.00;;;;;;5052137;28;1407;-72
2021/10/08 03:19:31;;;;;;;;;;;20.60;66.10;;;;;;5050750;28;1894;-73
2021/10/08 03:21:57;;;;;;;;;;;20.60;66.10;;;;;;5050443;28;1311;-73
2021/10/08 03:24:22;;;;;;;;;;;20.60;66.10;;;;;;5051428;28;1314;-73
2021/10/08 03:26:48;;;;;;;;;;;20.60;66.10;;;;;;5049337;28;1370;-73
2021/10/08 03:29:13;;;;;;;;;;;20.60;66.10;;;;;;5030476;28;1080;-73
2021/10/08 03:31:40;;;;;;;;;;;20.60;66.20;;;;;;5031986;28;1322;-73
2021/10/08 03:34:05;;;;;;;;;;;20.60;66.10;;;;;;5032431;28;1111;-73
2021/10/08 03:36:54;;;;;;;;;;;20.60;66.20;;;;;;5047587;28;1291;-73
2021/10/08 03:39:23;;;;;;;;;;;20.60;66.20;;;;;;5031260;28;1969;-73
2021/10/08 03:41:49;;;;;;;;;;;20.60;66.20;;;;;;5031709;28;1056;-73
2021/10/08 03:44:15;;;;;;;;;;;20.60;66.20;;;;;;5047675;28;1284;-73
2021/10/08 03:46:45;;;;;;;;;;;20.60;66.20;;;;;;5042601;28;1293;-73
2021/10/08 03:49:13;;;;;;;;;;;20.60;66.20;;;;;;5023664;28;969;-73
2021/10/08 03:51:38;;;;;;;;;;;20.60;66.20;;;;;;5034616;28;1359;-73
2021/10/08 03:54:04;;;;;;;;;;;20.60;66.20;;;;;;5051289;28;1060;-72
2021/10/08 03:56:29;;;;;;;;;;;20.60;66.20;;;;;;5036042;28;1448;-73
2021/10/08 03:58:55;;;;;;;;;;;20.60;66.30;;;;;;5035751;28;1158;-73
2021/10/08 04:01:20;;;;;;;;;;;20.60;66.30;;;;;;5050939;28;1984;-73
2021/10/08 04:03:46;;;;;;;;;;;20.60;66.30;;;;;;5036071;28;1139;-72
2021/10/08 04:06:11;;;;;;;;;;;20.60;66.30;;;;;;5035773;28;1357;-73
2021/10/08 04:08:36;;;;;;;;;;;20.60;66.30;;;;;;5050668;28;1124;-73
2021/10/08 04:11:02;;;;;;;;;;;20.60;66.40;;;;;;5051013;28;1166;-72
2021/10/08 04:13:27;;;;;;;;;;;20.60;66.40;;;;;;5035894;28;1426;-73
2021/10/08 04:15:53;;;;;;;;;;;20.60;66.40;;;;;;5035604;28;1123;-73
2021/10/08 04:18:18;;;;;;;;;;;20.60;66.40;;;;;;5050807;28;1250;-72
2021/10/08 04:20:44;;;;;;;;;;;20.60;66.40;;;;;;5034871;28;1891;-73
2021/10/08 04:23:09;;;;;;;;;;;20.60;66.40;;;;;;5035512;28;1329;-73
2021/10/08 04:25:34;;;;;;;;;;;20.60;66.40;;;;;;5051124;28;1126;-72
2021/10/08 04:28:00;;;;;;;;;;;20.60;66.40;;;;;;5035142;28;1284;-73
2021/10/08 04:30:25;;;;;;;;;;;20.60;66.40;;;;;;5054713;28;1111;-73
2021/10/08 04:32:51;;;;;;;;;;;20.60;66.40;;;;;;5055639;28;1126;-72
2021/10/08 04:35:16;;;;;;;;;;;20.60;66.40;;;;;;5055577;28;1055;-73
2021/10/08 04:37:42;;;;;;;;;;;20.60;66.40;;;;;;5055408;28;1312;-73
2021/10/08 04:40:07;;;;;;;;;;;20.60;66.40;;;;;;5041914;28;1902;-71
2021/10/08 04:42:33;;;;;;;;;;;20.60;66.30;;;;;;5035232;28;1142;-73
2021/10/08 04:44:58;;;;;;;;;;;20.60;66.30;;;;;;5050897;28;1095;-73
2021/10/08 04:47:24;;;;;;;;;;;20.60;66.30;;;;;;5034980;28;1355;-72
2021/10/08 04:49:49;;;;;;;;;;;20.60;66.20;;;;;;5054800;28;1251;-73
2021/10/08 04:52:15;;;;;;;;;;;20.70;66.20;;;;;;5053269;28;1376;-71
2021/10/08 04:54:40;;;;;;;;;;;20.70;66.10;;;;;;5054981;28;1110;-72
2021/10/08 04:57:05;;;;;;;;;;;20.70;66.10;;;;;;5057274;22;3674;-69
2021/10/08 04:59:31;;;;;;;;;;;20.70;66.00;;;;;;5021730;28;1981;-69
2021/10/08 05:01:56;;;;;;;;;;;20.70;65.90;;;;;;5033534;28;1284;-70
2021/10/08 05:04:22;;;;;;;;;;;20.70;65.90;;;;;;5034937;28;1339;-68
2021/10/08 05:06:47;;;;;;;;;;;20.80;65.80;;;;;;5034642;28;1358;-69
2021/10/08 05:09:13;;;;;;;;;;;20.80;65.80;;;;;;5034640;28;1071;-68
2021/10/08 05:11:38;;;;;;;;;;;20.80;65.70;;;;;;5034277;28;1306;-69
2021/10/08 05:14:03;;;;;;;;;;;20.80;65.70;;;;;;5033209;28;1241;-69
2021/10/08 05:16:30;;;;;;;;;;;20.80;65.60;;;;;;5034732;28;1400;-70
2021/10/08 05:18:55;;;;;;;;;;;20.80;65.50;;;;;;5034411;28;1275;-70
2021/10/08 05:21:20;;;;;;;;;;;20.90;65.50;;;;;;5032490;28;1890;-69
2021/10/08 05:23:46;;;;;;;;;;;20.90;65.40;;;;;;5033332;28;1131;-69
2021/10/08 05:26:11;;;;;;;;;;;20.90;65.40;;;;;;5034353;28;1363;-69
2021/10/08 05:28:37;;;;;;;;;;;20.90;65.40;;;;;;5027897;28;1103;-69
2021/10/08 05:31:02;;;;;;;;;;;20.90;65.30;;;;;;5032724;28;1104;-69
2021/10/08 05:33:28;;;;;;;;;;;20.90;65.30;;;;;;5033340;28;1306;-69
2021/10/08 05:35:53;;;;;;;;;;;20.90;65.30;;;;;;5034823;28;1139;-69
2021/10/08 05:38:18;;;;;;;;;;;20.90;65.20;;;;;;5033765;28;1274;-68
2021/10/08 05:40:47;;;;;;;;;;;21.00;65.30;;;;;;5032551;28;1902;-69
2021/10/08 05:43:12;;;;;;;;;;;21.00;65.30;;;;;;5033995;28;1059;-69
2021/10/08 05:45:37;;;;;;;;;;;20.90;65.20;;;;;;5034156;28;1076;-69
2021/10/08 05:48:03;;;;;;;;;;;21.00;65.20;;;;;;5033061;28;1272;-69
2021/10/08 05:50:28;;;;;;;;;;;21.00;65.20;;;;;;5033173;28;1314;-69
2021/10/08 05:52:54;;;;;;;;;;;21.00;65.20;;;;;;5034028;28;1368;-69
2021/10/08 05:55:22;;;;;;;;;;;21.00;65.10;;;;;;5033836;28;1315;-69
2021/10/08 05:57:47;;;;;;;;;;;21.00;65.10;;;;;;5033685;28;1182;-69
2021/10/08 06:00:13;;;;;;;;;;;21.00;65.10;;;;;;5016249;28;1906;-69
2021/10/08 06:02:38;;;;;;;;;;;21.00;65.80;;;;;;5030080;28;1183;-68
2021/10/08 06:05:04;;;;;;;;;;;21.00;65.30;;;;;;5031978;28;1361;-68
2021/10/08 06:07:29;;;;;;;;;;;21.00;65.00;;;;;;5031391;28;1355;-69
2021/10/08 06:09:55;;;;;;;;;;;21.10;65.00;;;;;;5030901;28;1447;-69
2021/10/08 06:12:20;;;;;;;;;;;21.10;64.80;;;;;;5032794;28;1150;-69
2021/10/08 06:14:46;;;;;;;;;;;21.10;64.70;;;;;;5032425;28;1375;-69
2021/10/08 06:17:11;;;;;;;;;;;21.20;64.60;;;;;;5032580;28;1411;-70
2021/10/08 06:19:36;;;;;;;;;;;21.30;64.50;;;;;;5032114;28;1898;-69
2021/10/08 06:22:02;;;;;;;;;;;21.40;64.40;;;;;;5031223;28;1259;-70
2021/10/08 06:24:28;;;;;;;;;;;21.40;64.20;;;;;;5032494;28;1192;-70
2021/10/08 06:26:53;;;;;;;;;;;21.50;64.00;;;;;;5032336;28;1273;-69
2021/10/08 06:29:18;;;;;;;;;;;21.60;63.80;;;;;;5031133;28;1270;-69
2021/10/08 06:31:45;;;;;;;;;;;21.70;63.60;;;;;;5027618;28;1662;-69
2021/10/08 06:34:11;;;;;;;;;;;21.70;63.30;;;;;;5032353;28;1164;-70
2021/10/08 06:36:36;;;;;;;;;;;21.80;63.10;;;;;;5020602;28;2453;-69
2021/10/08 06:39:02;;;;;;;;;;;21.90;63.00;;;;;;5030234;28;1212;-70
2021/10/08 06:41:27;;;;;;;;;;;21.90;62.80;;;;;;5028630;28;1902;-69
2021/10/08 06:43:53;;;;;;;;;;;21.90;62.60;;;;;;5032199;28;1386;-69
2021/10/08 06:46:20;;;;;;;;;;;22.00;62.50;;;;;;5029748;28;1306;-70
2021/10/08 06:48:45;;;;;;;;;;;22.00;62.50;;;;;;5032709;28;1319;-69
2021/10/08 06:51:11;;;;;;;;;;;22.00;62.30;;;;;;5028870;28;1074;-70
2021/10/08 06:53:36;;;;;;;;;;;22.00;62.20;;;;;;5032847;28;1345;-69
2021/10/08 06:56:01;;;;;;;;;;;22.00;62.20;;;;;;5033080;28;1297;-69
2021/10/08 06:58:27;;;;;;;;;;;22.00;62.10;;;;;;5032778;28;1243;-69
2021/10/08 07:00:53;;;;;;;;;;;22.10;62.20;;;;;;5032134;28;1950;-69
2021/10/08 07:03:20;;;;;;;;;;;22.10;62.90;;;;;;5032990;28;1756;-69
2021/10/08 07:05:45;;;;;;;;;;;22.10;62.10;;;;;;5030985;28;1277;-69
2021/10/08 07:08:10;;;;;;;;;;;22.10;62.10;;;;;;5032831;28;1290;-70
2021/10/08 07:10:38;;;;;;;;;;;22.10;62.10;;;;;;5032326;28;1389;-68
2021/10/08 07:13:04;;;;;;;;;;;22.10;62.20;;;;;;5024412;28;2269;-68
2021/10/08 07:15:29;;;;;;;;;;;22.10;62.10;;;;;;5031918;28;1430;-69
2021/10/08 07:17:55;;;;;;;;;;;22.10;62.20;;;;;;5025513;28;2136;-69
2021/10/08 07:20:21;;;;;;;;;;;22.00;62.10;;;;;;5031683;28;1902;-69
2021/10/08 07:22:47;;;;;;;;;;;22.00;62.10;;;;;;5030801;28;1284;-69
2021/10/08 07:25:12;;;;;;;;;;;22.00;62.20;;;;;;5028266;28;1141;-69
2021/10/08 07:27:38;;;;;;;;;;;22.00;62.20;;;;;;5031406;28;1349;-69
2021/10/08 07:30:04;;;;;;;;;;;22.00;62.40;;;;;;5022026;28;1504;-69
2021/10/08 07:32:30;;;;;;;;;;;22.00;62.80;;;;;;5027624;28;1477;-69
2021/10/08 07:34:55;;;;;;;;;;;22.00;63.20;;;;;;5004933;28;1382;-69
2021/10/08 07:37:21;;;;;;;;;;;22.00;63.60;;;;;;5023245;28;1307;-69
2021/10/08 07:39:47;;;;;;;;;;;22.00;63.50;;;;;;5005560;28;2207;-70
2021/10/08 07:42:12;;;;;;;;;;;22.00;63.50;;;;;;5003267;28;1192;-70
2021/10/08 07:44:37;;;;;;;;;;;22.00;63.70;;;;;;5031974;28;1656;-69
2021/10/08 07:47:03;;;;;;;;;;;22.00;64.60;;;;;;5032471;28;1774;-69
2021/10/08 07:49:28;;;;;;;;;;;22.00;63.90;;;;;;5031866;28;1267;-69
2021/10/08 07:51:54;;;;;;;;;;;22.00;63.90;;;;;;5031997;28;1569;-69
2021/10/08 07:54:19;;;;;;;;;;;22.10;64.00;;;;;;5031213;28;1578;-69
2021/10/08 07:56:45;;;;;;;;;;;22.00;64.00;;;;;;5031458;28;1607;-69
2021/10/08 07:59:10;;;;;;;;;;;22.10;64.20;;;;;;5030843;28;1485;-69
2021/10/08 08:01:36;;;;;;;;;;;22.00;64.20;;;;;;5031605;28;1970;-69
2021/10/08 08:04:01;;;;;;;;;;;22.00;64.30;;;;;;5031995;28;1326;-69
2021/10/08 08:06:26;;;;;;;;;;;22.00;64.40;;;;;;5031904;28;1590;-69
2021/10/08 08:08:52;;;;;;;;;;;22.00;64.40;;;;;;5032174;28;1373;-69
2021/10/08 08:11:17;;;;;;;;;;;22.00;64.50;;;;;;5031317;28;1636;-70
2021/10/08 08:13:43;;;;;;;;;;;22.00;64.60;;;;;;5032239;28;1647;-69
2021/10/08 08:16:08;;;;;;;;;;;22.00;64.70;;;;;;5032267;28;1371;-69
2021/10/08 08:18:35;;;;;;;;;;;22.00;64.90;;;;;;5031947;28;1366;-69
2021/10/08 08:21:01;;;;;;;;;;;22.00;64.90;;;;;;5032047;28;1902;-69
2021/10/08 08:23:26;;;;;;;;;;;22.00;64.90;;;;;;5032183;28;1714;-70
2021/10/08 08:25:53;;;;;;;;;;;22.00;65.00;;;;;;5031878;28;1359;-69
2021/10/08 08:28:18;;;;;;;;;;;21.90;65.00;;;;;;5031583;28;1403;-70
2021/10/08 08:30:44;;;;;;;;;;;22.00;65.10;;;;;;5031264;28;1379;-68
2021/10/08 08:33:09;;;;;;;;;;;21.90;65.10;;;;;;5032868;28;1365;-69
2021/10/08 08:35:34;;;;;;;;;;;21.90;65.10;;;;;;5035131;28;1645;-69
2021/10/08 08:38:00;;;;;;;;;;;21.90;65.20;;;;;;5035133;28;1674;-68
2021/10/08 08:40:28;;;;;;;;;;;21.90;65.30;;;;;;5032980;28;1971;-68
2021/10/08 08:42:53;;;;;;;;;;;21.90;65.50;;;;;;5035086;28;1548;-68
2021/10/08 08:45:19;;;;;;;;;;;21.90;65.50;;;;;;5034047;28;1456;-68
2021/10/08 08:47:55;;;;;;;;;;;21.90;65.50;;;;;;5035089;28;1232;-68
2021/10/08 08:50:21;;;;;;;;;;;21.90;65.60;;;;;;5034996;28;1672;-68
2021/10/08 08:52:46;;;;;;;;;;;21.90;65.70;;;;;;5035632;28;1557;-69
2021/10/08 08:55:12;;;;;;;;;;;21.80;65.70;;;;;;5035131;28;1604;-69
2021/10/08 08:57:37;;;;;;;;;;;21.80;65.80;;;;;;5034622;28;1333;-69
2021/10/08 09:00:04;;;;;;;;;;;21.80;65.90;;;;;;5034641;28;1959;-69
2021/10/08 09:02:30;;;;;;;;;;;21.80;66.00;;;;;;5033504;28;1273;-69
2021/10/08 09:04:56;;;;;;;;;;;21.80;66.00;;;;;;5033978;28;1598;-70
2021/10/08 09:07:21;;;;;;;;;;;21.80;66.00;;;;;;5035375;28;1198;-69
2021/10/08 09:09:47;;;;;;;;;;;21.80;66.20;;;;;;5035092;28;1684;-70
2021/10/08 09:12:13;;;;;;;;;;;21.80;66.10;;;;;;5034023;28;1365;-70
2021/10/08 09:14:38;;;;;;;;;;;21.80;66.20;;;;;;5034893;28;1798;-70
2021/10/08 09:17:15;;;;;;;;;;;21.80;66.20;;;;;;5034877;28;1602;-70
2021/10/08 09:19:44;;;;;;;;;;;21.70;66.30;;;;;;5034880;28;1894;-70
2021/10/08 09:22:10;;;;;;;;;;;21.70;66.40;;;;;;5034077;28;1667;-70
2021/10/08 09:24:35;;;;;;;;;;;21.70;66.40;;;;;;5035189;28;1419;-69
2021/10/08 09:27:08;;;;;;;;;;;21.70;66.50;;;;;;5031157;28;1637;-70
2021/10/08 09:29:33;;;;;;;;;;;21.70;66.50;;;;;;5032534;28;1566;-71
2021/10/08 09:31:59;;;;;;;;;;;21.70;66.60;;;;;;5034705;28;1319;-70
2021/10/08 09:34:25;;;;;;;;;;;21.70;66.70;;;;;;5034752;28;1697;-70
2021/10/08 09:36:56;;;;;;;;;;;21.70;66.80;;;;;;5034483;28;1649;-72
2021/10/08 09:39:23;;;;;;;;;;;21.80;67.00;;;;;;5034778;28;1910;-71
2021/10/08 09:41:56;;;;;;;;;;;21.70;66.90;;;;;;5032428;28;1688;-71
2021/10/08 09:44:22;;;;;;;;;;;21.80;67.00;;;;;;5024583;28;2250;-68
2021/10/08 09:46:47;;;;;;;;;;;21.70;66.90;;;;;;5024679;28;1571;-69
2021/10/08 09:49:22;;;;;;;;;;;21.80;67.00;;;;;;5025190;28;1497;-70
2021/10/08 09:51:47;;;;;;;;;;;21.80;67.00;;;;;;5031794;28;1530;-69
2021/10/08 09:54:13;;;;;;;;;;;21.80;67.00;;;;;;5025995;28;1892;-69
2021/10/08 09:56:42;;;;;;;;;;;21.80;66.90;;;;;;5032678;28;1534;-69
2021/10/08 09:59:14;;;;;;;;;;;21.80;67.10;;;;;;5027352;28;1513;-70
2021/10/08 10:01:40;;;;;;;;;;;21.80;67.10;;;;;;5031966;28;1910;-69
2021/10/08 10:04:08;;;;;;;;;;;21.70;67.10;;;;;;5032506;28;1644;-70
2021/10/08 10:06:33;;;;;;;;;;;21.70;67.20;;;;;;5032123;28;1606;-69
2021/10/08 10:09:02;;;;;;;;;;;21.70;68.10;;;;;;5032858;28;1363;-69
2021/10/08 10:11:28;;;;;;;;;;;21.70;67.40;;;;;;5031539;28;1670;-69
2021/10/08 10:13:57;;;;;;;;;;;21.70;67.50;;;;;;5032543;28;1663;-70
2021/10/08 10:16:22;;;;;;;;;;;21.70;67.50;;;;;;5032090;28;1583;-69
2021/10/08 10:18:48;;;;;;;;;;;21.60;67.60;;;;;;5032217;28;1697;-70
2021/10/08 10:21:36;;;;;;;;;;;21.60;67.60;;;;;;5031257;28;1972;-70
2021/10/08 10:24:02;;;;;;;;;;;21.60;67.70;;;;;;5032810;28;1681;-70
2021/10/08 10:26:28;;;;;;;;;;;21.60;67.70;;;;;;5032415;28;1734;-69
2021/10/08 10:28:53;;;;;;;;;;;21.60;67.80;;;;;;5032456;28;1505;-70
2021/10/08 10:31:19;;;;;;;;;;;21.60;67.80;;;;;;5032098;28;1656;-70
2021/10/08 10:33:44;;;;;;;;;;;21.60;67.90;;;;;;5032567;28;1247;-70
2021/10/08 10:36:23;;;;;;;;;;;21.60;67.90;;;;;;5031471;28;1602;-70
2021/10/08 10:38:49;;;;;;;;;;;21.60;67.90;;;;;;5031105;28;1643;-68
2021/10/08 10:41:14;;;;;;;;;;;21.60;68.00;;;;;;5032006;28;1906;-70
2021/10/08 10:43:45;;;;;;;;;;;21.50;67.90;;;;;;5032371;28;1652;-69
2021/10/08 10:52:01;;;;;;;;;;;21.60;68.20;;;;;;5032375;28;1633;-69
2021/10/08 10:54:38;;;;;;;;;;;21.60;68.10;;;;;;5033293;28;1374;-69
2021/10/08 10:57:07;;;;;;;;;;;21.60;68.20;;;;;;5032766;28;1444;-69
2021/10/08 10:59:36;;;;;;;;;;;21.50;68.20;;;;;;5032185;28;1970;-70
2021/10/08 11:02:08;;;;;;;;;;;21.60;68.20;;;;;;5029901;28;1774;-69
2021/10/08 11:04:33;;;;;;;;;;;21.50;68.20;;;;;;5030630;28;1406;-70
2021/10/08 11:07:09;;;;;;;;;;;21.60;68.30;;;;;;5032029;28;1413;-70
2021/10/08 11:09:34;;;;;;;;;;;21.60;68.30;;;;;;5030869;28;1591;-69
2021/10/08 11:12:20;;;;;;;;;;;21.60;68.30;;;;;;5031385;28;1338;-69
2021/10/08 11:14:45;;;;;;;;;;;21.60;68.40;;;;;;5010806;28;1953;-69
2021/10/08 11:17:30;;;;;;;;;;;21.60;69.20;;;;;;5031339;28;1980;-69
2021/10/08 11:19:55;;;;;;;;;;;21.60;68.50;;;;;;5014645;28;1938;-69
2021/10/08 11:22:39;;;;;;;;;;;21.60;68.50;;;;;;5023291;28;1213;-69
2021/10/08 11:25:05;;;;;;;;;;;21.60;68.50;;;;;;5022783;28;1867;-70
2021/10/08 11:27:30;;;;;;;;;;;21.60;68.50;;;;;;5028248;28;1371;-71
2021/10/08 11:29:56;;;;;;;;;;;21.60;68.60;;;;;;5030855;28;1157;-70
2021/10/08 11:32:21;;;;;;;;;;;21.60;68.60;;;;;;5029685;28;1455;-70
2021/10/08 11:34:47;;;;;;;;;;;21.60;68.60;;;;;;5031690;28;1233;-70
2021/10/08 11:37:13;;;;;;;;;;;21.50;68.60;;;;;;5030968;28;1402;-71
2021/10/08 11:39:41;;;;;;;;;;;21.50;68.70;;;;;;5032218;28;1945;-70
2021/10/08 11:42:15;;;;;;;;;;;21.50;68.80;;;;;;5032060;28;1282;-70
2021/10/08 11:45:12;;;;;;;;;;;21.60;68.80;;;;;;5032957;28;1329;-70
2021/10/08 11:50:11;;;;;;;;;;;21.60;68.80;;;;;;5031666;28;1267;-69
2021/10/08 11:52:37;;;;;;;;;;;21.60;68.70;;;;;;5032176;28;1355;-69
2021/10/08 11:55:04;;;;;;;;;;;21.60;68.80;;;;;;5030611;28;1184;-69
2021/10/08 11:57:29;;;;;;;;;;;21.60;68.80;;;;;;5031671;28;1264;-70
2021/10/08 11:59:58;;;;;;;;;;;21.60;68.80;;;;;;5031086;28;1990;-70
2021/10/08 12:02:23;;;;;;;;;;;21.60;68.80;;;;;;5031884;28;1202;-70
2021/10/08 12:04:59;;;;;;;;;;;21.60;69.00;;;;;;5031864;28;1296;-69
2021/10/08 12:07:24;;;;;;;;;;;21.60;67.80;;;;;;5031841;28;1287;-69
2021/10/08 12:10:09;;;;;;;;;;;21.50;64.70;;;;;;5034846;28;1299;-69
2021/10/08 12:12:34;;;;;;;;;;;21.50;63.60;;;;;;5036206;28;1300;-70
2021/10/08 12:14:59;;;;;;;;;;;21.50;62.80;;;;;;5035962;28;1346;-70
2021/10/08 12:17:25;;;;;;;;;;;21.40;62.10;;;;;;5035755;28;1286;-70
2021/10/08 12:19:50;;;;;;;;;;;21.40;62.00;;;;;;5034806;28;1886;-69
2021/10/08 12:22:22;;;;;;;;;;;21.30;61.20;;;;;;5034304;28;1319;-69
2021/10/08 12:24:49;;;;;;;;;;;21.30;60.60;;;;;;5032846;28;1303;-68
2021/10/08 12:27:14;;;;;;;;;;;21.30;59.90;;;;;;5034023;28;1319;-69
2021/10/08 12:29:41;;;;;;;;;;;21.30;60.10;;;;;;5027533;28;2083;-68
2021/10/08 12:32:10;;;;;;;;;;;21.30;60.20;;;;;;5024775;28;1169;-68
2021/10/08 12:34:36;;;;;;;;;;;21.20;59.70;;;;;;5013461;28;1383;-70
2021/10/08 12:37:03;;;;;;;;;;;21.20;59.50;;;;;;5027388;28;1334;-69
2021/10/08 12:39:29;;;;;;;;;;;21.20;59.40;;;;;;5034381;28;1975;-69
2021/10/08 12:44:26;;;;;;;;;;;21.20;57.60;;;;;;5035367;28;1111;-69
2021/10/08 12:47:12;;;;;;;;;;;21.20;58.00;;;;;;5026790;28;1268;-69
2021/10/08 12:49:45;;;;;;;;;;;21.20;58.90;;;;;;5028493;28;1129;-70
2021/10/08 12:52:10;;;;;;;;;;;21.20;58.70;;;;;;5034429;28;1252;-69
2021/10/08 12:54:36;;;;;;;;;;;21.10;58.60;;;;;;5030095;28;1281;-69
2021/10/08 12:57:07;;;;;;;;;;;21.10;57.80;;;;;;5034032;28;1305;-70
2021/10/08 12:59:45;;;;;;;;;;;21.10;58.80;;;;;;5035024;28;1910;-70
2021/10/08 13:02:10;;;;;;;;;;;21.10;57.20;;;;;;5033928;28;1169;-69
2021/10/08 13:04:39;;;;;;;;;;;21.10;57.60;;;;;;5033600;28;1036;-69
2021/10/08 13:07:11;;;;;;;;;;;21.10;58.00;;;;;;5033723;28;1342;-68
2021/10/08 13:09:37;;;;;;;;;;;21.10;58.20;;;;;;5034717;28;1093;-69
2021/10/08 13:12:02;;;;;;;;;;;21.10;57.80;;;;;;5034018;28;1324;-69
2021/10/08 13:14:28;;;;;;;;;;;21.10;57.90;;;;;;5034816;28;1130;-69
2021/10/08 13:16:53;;;;;;;;;;;21.10;57.10;;;;;;5033426;28;1275;-70
2021/10/08 13:19:25;;;;;;;;;;;21.00;57.50;;;;;;5034159;28;1210;-69
2021/10/08 13:21:51;;;;;;;;;;;21.10;57.90;;;;;;5032208;28;1350;-69
2021/10/08 13:24:16;;;;;;;;;;;21.10;57.90;;;;;;5034659;28;1258;-69
2021/10/08 13:26:42;;;;;;;;;;;21.00;56.40;;;;;;5032996;28;1285;-68
2021/10/08 13:29:07;;;;;;;;;;;21.00;56.60;;;;;;5028615;28;1312;-68
2021/10/08 13:31:33;;;;;;;;;;;21.00;57.50;;;;;;5033603;28;1255;-67
2021/10/08 13:33:58;;;;;;;;;;;21.00;56.80;;;;;;5034051;28;1291;-67
2021/10/08 13:36:23;;;;;;;;;;;21.00;57.20;;;;;;5034188;28;1331;-69
2021/10/08 13:38:49;;;;;;;;;;;21.00;57.40;;;;;;5034081;28;1309;-69
2021/10/08 13:41:14;;;;;;;;;;;21.00;56.10;;;;;;5033545;28;1910;-69
2021/10/08 13:43:40;;;;;;;;;;;20.90;56.00;;;;;;5033367;28;1154;-69
2021/10/08 13:46:05;;;;;;;;;;;21.00;57.20;;;;;;5033099;28;1256;-69
2021/10/08 13:48:30;;;;;;;;;;;20.90;55.70;;;;;;5034200;28;1337;-69
2021/10/08 13:50:56;;;;;;;;;;;20.90;56.20;;;;;;5033587;28;1345;-69
2021/10/08 13:53:21;;;;;;;;;;;20.90;57.00;;;;;;5034337;28;1245;-70
2021/10/08 13:55:47;;;;;;;;;;;20.90;56.40;;;;;;5034183;28;1344;-69
2021/10/08 13:58:12;;;;;;;;;;;20.90;56.80;;;;;;5033361;28;1230;-69
2021/10/08 14:00:42;;;;;;;;;;;20.90;56.00;;;;;;5033175;28;1906;-69
2021/10/08 14:08:42;;;;;;;;;;;20.80;54.50;;;;;;5016042;28;1395;-69
2021/10/08 14:11:09;;;;;;;;;;;20.80;56.30;;;;;;5032999;28;1322;-69
2021/10/08 14:13:34;;;;;;;;;;;20.90;56.50;;;;;;5030012;28;1136;-69
2021/10/08 14:16:00;;;;;;;;;;;20.80;55.70;;;;;;5033658;28;1263;-69
2021/10/08 14:18:26;;;;;;;;;;;20.80;56.20;;;;;;5033679;28;1538;-69
2021/10/08 14:20:52;;;;;;;;;;;20.80;55.60;;;;;;5032977;28;1894;-69
2021/10/08 14:23:17;;;;;;;;;;;20.80;56.40;;;;;;5033620;28;1409;-70
2021/10/08 14:25:43;;;;;;;;;;;20.80;56.60;;;;;;5033639;28;1233;-69
2021/10/08 14:28:08;;;;;;;;;;;20.80;56.70;;;;;;5027555;28;1303;-69
2021/10/08 14:30:34;;;;;;;;;;;20.80;55.80;;;;;;5031891;28;1379;-69
2021/10/08 14:32:59;;;;;;;;;;;20.80;56.00;;;;;;5033552;28;1270;-69
2021/10/08 14:35:25;;;;;;;;;;;20.80;56.20;;;;;;5031769;28;1287;-68
2021/10/08 14:37:50;;;;;;;;;;;20.80;55.50;;;;;;5032713;28;1306;-69
2021/10/08 14:40:16;;;;;;;;;;;20.80;56.50;;;;;;5031460;28;1964;-69
2021/10/08 14:42:46;;;;;;;;;;;20.80;56.20;;;;;;5033233;28;1262;-68